Time;durP1;ratioP1;P1;durP2;ratioP2;P2;SDS_P1;SDS_P2;PMS_P1;PMS_P2;Temp;Humidity;BMP_temperature;BMP_pressure;BME280_temperature;BME280_humidity;BME280_pressure;Samples;Min_cycle;Max_cycle;Signal;HPM_P1;HPM_P2
2021/01/02 00:00:54;;;;;;;7.93;5.88;;;3.10;99.90;;;;;;6186537;23;20024;-96
2021/01/02 00:03:28;;;;;;;8.27;5.47;;;3.20;99.90;;;;;;6185435;23;20626;-96
2021/01/02 00:06:07;;;;;;;7.15;5.03;;;3.20;99.90;;;;;;6184303;23;20021;-96
2021/01/02 00:08:38;;;;;;;6.15;5.55;;;3.20;99.90;;;;;;6185457;23;20033;-96
2021/01/02 00:11:36;;;;;;;7.85;5.18;;;3.20;99.90;;;;;;6184979;23;20032;-96
2021/01/02 00:14:37;;;;;;;5.35;4.63;;;3.30;99.90;;;;;;6185756;23;20020;-96
2021/01/02 00:17:14;;;;;;;5.68;4.93;;;3.30;99.90;;;;;;6185376;23;20145;-96
2021/01/02 00:19:59;;;;;;;8.48;4.95;;;3.30;99.90;;;;;;6185436;23;20251;-96
2021/01/02 00:22:47;;;;;;;5.10;4.60;;;3.30;99.90;;;;;;6185623;23;20341;-96
2021/01/02 00:25:16;;;;;;;6.35;4.80;;;3.30;99.90;;;;;;6185810;23;20025;-96
2021/01/02 00:27:55;;;;;;;5.78;4.63;;;3.30;99.90;;;;;;6186259;23;20013;-96
2021/01/02 00:30:42;;;;;;;5.32;4.30;;;3.40;99.90;;;;;;6185061;23;20445;-96
2021/01/02 00:33:47;;;;;;;7.47;4.68;;;3.40;99.90;;;;;;6185585;23;20491;-96
2021/01/02 00:36:25;;;;;;;6.53;4.97;;;3.40;99.90;;;;;;6186231;23;20079;-96
2021/01/02 00:38:52;;;;;;;7.72;5.80;;;3.50;99.90;;;;;;6186647;23;20014;-96
2021/01/02 00:41:24;;;;;;;6.90;5.57;;;3.40;99.90;;;;;;6186112;23;20048;-96
2021/01/02 00:43:54;;;;;;;8.10;5.38;;;3.50;99.90;;;;;;6185825;23;20031;-96
2021/01/02 00:46:23;;;;;;;5.93;4.45;;;3.40;99.90;;;;;;6186188;23;20425;-96
2021/01/02 00:48:52;;;;;;;7.85;4.30;;;3.40;99.90;;;;;;6186056;23;20021;-96
2021/01/02 00:51:21;;;;;;;7.15;5.03;;;3.40;99.90;;;;;;6185728;23;20036;-96
2021/01/02 00:53:55;;;;;;;6.05;4.40;;;3.40;99.90;;;;;;6185810;23;20028;-96
2021/01/02 00:56:32;;;;;;;5.80;4.38;;;3.50;99.90;;;;;;6185339;23;20017;-96
2021/01/02 00:59:27;;;;;;;5.72;4.63;;;3.50;99.90;;;;;;6185709;23;20021;-96
2021/01/02 01:02:18;;;;;;;7.82;4.50;;;3.50;99.90;;;;;;6185710;23;20027;-96
2021/01/02 01:05:08;;;;;;;6.82;4.43;;;3.50;99.90;;;;;;6185793;23;20024;-96
2021/01/02 01:07:38;;;;;;;7.88;4.30;;;3.50;99.90;;;;;;6186111;23;20021;-96
2021/01/02 01:10:11;;;;;;;4.57;3.90;;;3.50;99.90;;;;;;6185561;23;20045;-96
2021/01/02 01:12:43;;;;;;;6.13;3.95;;;3.50;99.90;;;;;;6186209;23;20052;-96
2021/01/02 01:15:13;;;;;;;5.90;3.97;;;3.50;99.90;;;;;;6185729;23;20414;-96
2021/01/02 01:17:55;;;;;;;5.25;4.03;;;3.60;99.90;;;;;;6185652;23;20024;-96
2021/01/02 01:21:03;;;;;;;5.75;4.18;;;3.60;99.90;;;;;;6077809;23;20052;-96
2021/01/02 01:24:09;;;;;;;4.40;3.65;;;3.60;99.90;;;;;;6076569;23;20023;-96
2021/01/02 01:26:58;;;;;;;8.18;4.43;;;3.60;99.90;;;;;;6072606;23;20021;-96
2021/01/02 01:29:40;;;;;;;5.90;4.25;;;3.60;99.90;;;;;;6073102;23;20023;-96
2021/01/02 01:32:10;;;;;;;7.10;4.10;;;3.60;99.90;;;;;;6073207;23;20093;-96
2021/01/02 01:34:51;;;;;;;6.25;4.20;;;3.60;99.90;;;;;;6073043;23;20462;-96
2021/01/02 01:37:26;;;;;;;4.72;4.20;;;3.60;99.90;;;;;;6072753;23;20439;-96
2021/01/02 01:40:01;;;;;;;8.68;4.60;;;3.60;99.90;;;;;;6073075;23;20095;-96
2021/01/02 01:42:42;;;;;;;5.72;4.20;;;3.50;99.90;;;;;;6073669;23;20022;-96
2021/01/02 01:45:43;;;;;;;6.45;4.40;;;3.50;99.90;;;;;;6072863;23;20025;-96
2021/01/02 01:48:18;;;;;;;5.32;4.25;;;3.50;99.90;;;;;;6073993;23;20362;-96
2021/01/02 01:50:59;;;;;;;;;;;3.50;99.90;;;;;;6075767;23;20078;-96
2021/01/02 01:53:48;;;;;;;5.60;4.13;;;3.50;99.90;;;;;;6051204;23;19917;-96
2021/01/02 01:56:24;;;;;;;4.70;4.25;;;3.50;99.90;;;;;;6074073;23;20033;-96
2021/01/02 01:59:05;;;;;;;5.78;4.30;;;3.50;99.90;;;;;;6179231;23;20040;-96
2021/01/02 02:01:38;;;;;;;6.13;4.10;;;3.40;99.90;;;;;;6187679;23;20017;-96
2021/01/02 02:04:11;;;;;;;5.43;4.20;;;3.40;99.90;;;;;;6187694;23;20025;-96
2021/01/02 02:06:59;;;;;;;4.95;4.18;;;3.40;99.90;;;;;;6188116;23;20024;-96
2021/01/02 02:09:59;;;;;;;7.53;4.93;;;3.40;99.90;;;;;;6188061;23;20077;-96
2021/01/02 02:12:50;;;;;;;7.45;5.03;;;3.50;99.90;;;;;;6163307;23;20025;-96
2021/01/02 02:15:21;;;;;;;12.80;4.80;;;3.50;99.90;;;;;;6134465;23;20018;-96
2021/01/02 02:18:56;;;;;;;;;;;;;;;;;;;;;
2021/01/02 02:21:49;;;;;;;7.65;4.57;;;3.40;99.90;;;;;;5900130;24;20048;-96
2021/01/02 02:24:24;;;;;;;5.20;4.67;;;3.40;99.90;;;;;;5880488;24;20021;-96
2021/01/02 02:26:54;;;;;;;6.50;4.72;;;3.40;99.90;;;;;;5902248;24;20271;-96
2021/01/02 02:29:29;;;;;;;5.35;4.85;;;3.40;99.90;;;;;;5877743;24;20021;-96
2021/01/02 02:32:10;;;;;;;6.88;4.90;;;3.40;99.90;;;;;;5878136;24;20017;-96
2021/01/02 02:34:42;;;;;;;6.53;4.70;;;3.40;99.90;;;;;;5878281;24;20045;-96
2021/01/02 02:37:13;;;;;;;5.15;4.53;;;3.40;99.90;;;;;;5878976;24;20392;-96
2021/01/02 02:39:47;;;;;;;7.03;4.95;;;3.30;99.90;;;;;;5879619;24;20439;-96
2021/01/02 02:42:19;;;;;;;8.60;5.40;;;3.30;99.90;;;;;;5878455;24;20036;-96
2021/01/02 02:44:53;;;;;;;8.88;5.53;;;3.30;99.90;;;;;;5879381;24;20100;-96
2021/01/02 02:47:37;;;;;;;8.95;5.20;;;3.30;99.90;;;;;;5879563;24;20100;-96
2021/01/02 02:50:26;;;;;;;6.20;5.18;;;3.30;99.90;;;;;;5878822;24;20021;-96
2021/01/02 02:53:16;;;;;;;8.00;5.10;;;3.30;99.90;;;;;;5942930;24;20113;-96
2021/01/02 02:55:46;;;;;;;9.18;5.47;;;3.20;99.90;;;;;;5960424;24;20050;-96
2021/01/02 02:58:14;;;;;;;6.43;5.28;;;3.20;99.90;;;;;;6094862;23;20018;-96
2021/01/02 03:00:44;;;;;;;7.70;5.70;;;3.10;99.90;;;;;;6133025;23;20072;-95
2021/01/02 03:03:14;;;;;;;;;;;3.10;99.90;;;;;;6133137;23;20041;-96
2021/01/02 03:05:43;;;;;;;9.15;5.97;;;3.10;99.90;;;;;;6132593;23;19917;-96
2021/01/02 03:08:15;;;;;;;6.20;5.43;;;3.00;99.90;;;;;;6132618;23;20352;-96
2021/01/02 03:10:45;;;;;;;8.68;5.78;;;3.00;99.90;;;;;;6134434;23;20021;-96
2021/01/02 03:13:13;;;;;;;8.57;5.25;;;3.00;99.90;;;;;;6186512;23;20017;-96
2021/01/02 03:15:42;;;;;;;6.50;5.43;;;3.00;99.90;;;;;;6162218;23;20365;-96
2021/01/02 03:18:14;;;;;;;6.65;4.70;;;3.00;99.90;;;;;;6161704;23;20079;-96
2021/01/02 03:20:44;;;;;;;6.95;4.70;;;3.00;99.90;;;;;;6161990;23;20020;-96
2021/01/02 03:23:12;;;;;;;5.85;5.03;;;3.00;99.90;;;;;;6162109;23;20088;-96
2021/01/02 03:25:40;;;;;;;11.17;5.23;;;3.00;99.90;;;;;;6161851;23;20021;-96
2021/01/02 03:28:09;;;;;;;6.65;5.45;;;3.00;99.90;;;;;;6161758;23;20024;-96
2021/01/02 03:30:36;;;;;;;7.32;5.00;;;3.00;99.90;;;;;;6160722;23;20025;-96
2021/01/02 03:33:04;;;;;;;6.65;5.50;;;3.00;99.90;;;;;;6161836;23;20017;-96
2021/01/02 03:35:35;;;;;;;6.90;5.45;;;3.10;99.90;;;;;;6161795;23;20120;-96
2021/01/02 03:38:04;;;;;;;9.25;5.72;;;3.10;99.90;;;;;;6162134;23;20333;-96
2021/01/02 03:40:32;;;;;;;7.18;5.80;;;3.10;99.90;;;;;;6161713;23;20013;-96
2021/01/02 03:43:00;;;;;;;8.65;5.57;;;3.10;99.90;;;;;;6162307;23;20032;-96
2021/01/02 03:45:29;;;;;;;7.72;5.80;;;3.10;99.90;;;;;;6162227;23;20013;-96
2021/01/02 03:47:57;;;;;;;6.47;5.20;;;3.10;99.90;;;;;;6161347;23;20096;-96
2021/01/02 03:50:25;;;;;;;7.30;5.63;;;3.10;99.90;;;;;;6161426;23;20017;-96
2021/01/02 03:52:54;;;;;;;7.53;5.85;;;3.10;99.90;;;;;;6161682;23;20013;-96
2021/01/02 03:55:21;;;;;;;7.65;6.35;;;3.10;99.90;;;;;;6161731;23;20017;-96
2021/01/02 03:57:49;;;;;;;8.20;6.05;;;3.10;99.90;;;;;;6161877;23;20464;-96
2021/01/02 04:00:17;;;;;;;7.68;5.82;;;3.10;99.90;;;;;;6161078;23;20023;-96
2021/01/02 04:02:43;;;;;;;7.68;5.95;;;3.10;99.90;;;;;;6186276;23;20021;-96
2021/01/02 04:05:11;;;;;;;8.35;6.22;;;3.10;99.90;;;;;;6161324;23;20013;-96
2021/01/02 04:07:39;;;;;;;6.97;5.72;;;3.10;99.90;;;;;;6186079;23;20088;-96
2021/01/02 04:10:08;;;;;;;8.18;6.53;;;3.10;99.90;;;;;;6161711;23;20021;-96
2021/01/02 04:12:36;;;;;;;7.97;6.63;;;3.10;99.90;;;;;;6181687;23;20025;-96
2021/01/02 04:15:05;;;;;;;7.15;5.60;;;3.10;99.90;;;;;;6185988;23;20369;-96
2021/01/02 04:17:35;;;;;;;8.25;5.75;;;3.20;99.90;;;;;;6186357;23;20017;-96
2021/01/02 04:20:05;;;;;;;5.95;5.18;;;3.20;99.90;;;;;;6186245;23;20025;-96
2021/01/02 04:22:36;;;;;;;5.85;5.25;;;3.20;99.90;;;;;;6186291;23;20392;-96
2021/01/02 04:25:05;;;;;;;5.47;4.97;;;3.30;99.90;;;;;;6186086;23;20036;-96
2021/01/02 04:27:35;;;;;;;5.85;4.80;;;3.40;99.90;;;;;;6186318;23;20089;-96
2021/01/02 04:30:09;;;;;;;6.80;4.63;;;3.40;99.90;;;;;;6184382;23;20020;-96
2021/01/02 04:32:44;;;;;;;6.15;4.80;;;3.40;99.90;;;;;;6185962;23;20017;-96
2021/01/02 04:35:12;;;;;;;5.50;5.00;;;3.50;99.90;;;;;;6186162;23;20071;-96
2021/01/02 04:37:43;;;;;;;5.75;5.20;;;3.50;99.90;;;;;;6186594;23;20112;-96
2021/01/02 04:40:15;;;;;;;7.15;5.18;;;3.50;99.90;;;;;;6186231;23;20020;-96
2021/01/02 04:42:48;;;;;;;7.22;4.82;;;3.50;99.90;;;;;;6186522;23;20029;-96
2021/01/02 04:45:20;;;;;;;6.30;5.18;;;3.50;99.90;;;;;;6186293;23;20013;-96
2021/01/02 04:47:51;;;;;;;6.63;5.35;;;3.50;99.90;;;;;;6186982;23;20036;-96
2021/01/02 04:50:19;;;;;;;6.38;5.00;;;3.50;99.90;;;;;;6185836;23;20021;-96
2021/01/02 04:52:49;;;;;;;5.80;4.75;;;3.50;99.90;;;;;;6186114;23;20017;-96
2021/01/02 04:55:22;;;;;;;6.88;5.10;;;3.50;99.90;;;;;;6185543;23;20028;-96
2021/01/02 04:57:55;;;;;;;6.50;4.88;;;3.50;99.90;;;;;;6186356;23;20044;-96
2021/01/02 05:00:26;;;;;;;6.75;4.45;;;3.50;99.90;;;;;;6186496;23;20553;-96
2021/01/02 05:02:57;;;;;;;4.43;3.90;;;3.50;99.90;;;;;;6188916;23;20071;-96
2021/01/02 05:05:52;;;;;;;5.43;4.03;;;3.60;99.90;;;;;;6189094;23;20017;-96
2021/01/02 05:08:25;;;;;;;4.30;3.70;;;3.60;99.90;;;;;;6188554;23;20021;-96
2021/01/02 05:11:07;;;;;;;4.65;3.70;;;3.60;99.90;;;;;;6187172;23;20047;-96
2021/01/02 05:13:40;;;;;;;4.77;3.33;;;3.70;99.90;;;;;;6162690;23;20587;-96
2021/01/02 05:16:34;;;;;;;4.93;3.55;;;3.70;99.90;;;;;;6163769;23;20589;-96
2021/01/02 05:20:00;;;;;;;4.38;3.60;;;3.70;99.90;;;;;;6163366;23;20028;-96
2021/01/02 05:22:47;;;;;;;3.88;3.42;;;3.70;99.90;;;;;;6167489;23;20024;-96
2021/01/02 05:25:22;;;;;;;4.20;2.95;;;3.70;99.90;;;;;;6164825;23;20029;-96
2021/01/02 05:27:59;;;;;;;4.13;3.40;;;3.70;99.90;;;;;;6165286;23;20090;-96
2021/01/02 05:30:33;;;;;;;3.17;2.50;;;3.70;99.90;;;;;;6163953;23;20451;-95
2021/01/02 05:33:08;;;;;;;3.67;3.03;;;3.80;99.90;;;;;;6163963;23;20071;-96
2021/01/02 05:35:43;;;;;;;3.30;3.00;;;3.80;99.90;;;;;;6165310;23;20017;-96
2021/01/02 05:38:26;;;;;;;3.30;2.90;;;3.70;99.90;;;;;;6164256;23;20021;-96
2021/01/02 05:41:10;;;;;;;2.63;2.42;;;3.80;99.90;;;;;;6167040;23;20017;-96
2021/01/02 05:43:45;;;;;;;3.13;2.40;;;3.70;99.90;;;;;;6165229;23;20013;-96
2021/01/02 05:46:32;;;;;;;2.60;2.40;;;3.70;99.90;;;;;;6189139;23;20027;-95
2021/01/02 05:48:59;;;;;;;4.47;2.40;;;3.70;99.90;;;;;;6162699;23;20017;-94
2021/01/02 05:51:43;;;;;;;4.72;3.42;;;3.70;99.90;;;;;;6163280;23;20017;-96
2021/01/02 05:54:17;;;;;;;3.58;2.58;;;3.70;99.90;;;;;;6163584;23;20052;-96
2021/01/02 05:56:54;;;;;;;4.18;2.63;;;3.70;99.90;;;;;;6163204;23;20048;-96
2021/01/02 05:59:33;;;;;;;3.70;3.10;;;3.70;99.90;;;;;;6164004;23;20021;-96
2021/01/02 06:02:29;;;;;;;3.22;2.33;;;3.70;99.90;;;;;;6163933;23;20500;-96
2021/01/02 06:05:16;;;;;;;4.38;2.70;;;3.60;99.90;;;;;;6164967;23;20445;-96
2021/01/02 06:08:10;;;;;;;3.22;2.65;;;3.60;99.90;;;;;;6165999;23;20017;-96
2021/01/02 06:10:47;;;;;;;3.30;2.70;;;3.60;99.90;;;;;;6164002;23;20028;-96
2021/01/02 06:13:18;;;;;;;3.28;2.53;;;3.60;99.90;;;;;;6163674;23;20031;-96
2021/01/02 06:16:04;;;;;;;3.92;2.42;;;3.60;99.90;;;;;;6164375;23;20017;-96
2021/01/02 06:19:07;;;;;;;3.03;2.45;;;3.60;99.90;;;;;;6166696;23;20017;-96
2021/01/02 06:22:06;;;;;;;3.95;2.42;;;3.60;99.90;;;;;;6170126;23;20028;-96
2021/01/02 06:24:43;;;;;;;4.20;2.45;;;3.60;99.90;;;;;;6166780;23;20024;-96
2021/01/02 06:27:14;;;;;;;3.00;2.20;;;3.60;99.90;;;;;;6167929;23;20024;-96
2021/01/02 06:30:01;;;;;;;4.65;2.17;;;3.60;99.90;;;;;;6166141;23;20021;-96
2021/01/02 06:33:05;;;;;;;4.25;2.40;;;3.60;99.90;;;;;;6166678;23;20013;-96
2021/01/02 06:36:33;;;;;;;4.43;2.50;;;3.60;99.90;;;;;;6167834;23;20021;-96
2021/01/02 06:39:53;;;;;;;3.50;2.45;;;3.60;99.90;;;;;;5938950;24;20028;-96
2021/01/02 06:42:41;;;;;;;;;;;;;;;;;;;;;
2021/01/02 06:45:18;;;;;;;3.95;2.40;;;3.50;99.90;;;;;;5957179;24;20024;-96
2021/01/02 06:48:23;;;;;;;4.28;2.80;;;3.50;99.90;;;;;;5936131;24;20025;-96
2021/01/02 06:51:37;;;;;;;3.70;2.88;;;3.50;99.90;;;;;;5937927;24;20127;-96
2021/01/02 06:54:30;;;;;;;4.93;2.78;;;3.60;99.90;;;;;;5934771;24;20021;-96
2021/01/02 06:57:05;;;;;;;4.97;2.67;;;3.60;99.90;;;;;;5934882;24;20024;-96
2021/01/02 06:59:39;;;;;;;3.65;2.92;;;3.60;99.90;;;;;;5935122;24;20086;-96
2021/01/02 07:02:27;;;;;;;5.13;3.13;;;3.60;99.90;;;;;;5934387;24;20097;-96
2021/01/02 07:04:56;;;;;;;;;;;3.60;99.90;;;;;;5934833;24;20054;-94
2021/01/02 07:07:55;;;;;;;5.45;2.88;;;3.60;99.90;;;;;;5936254;24;20281;-96
2021/01/02 07:10:32;;;;;;;4.78;3.05;;;3.60;99.90;;;;;;5931944;24;20057;-96
2021/01/02 07:13:12;;;;;;;3.30;2.85;;;3.60;99.90;;;;;;5935223;24;20025;-96
2021/01/02 07:21:21;;;;;;;;;;;;;;;;;;;;;
2021/01/02 07:23:52;;;;;;;4.68;3.20;;;3.50;99.90;;;;;;6040969;23;20023;-96
2021/01/02 07:26:26;;;;;;;6.47;3.20;;;3.50;99.90;;;;;;6040046;23;20106;-96
2021/01/02 07:29:02;;;;;;;4.93;3.20;;;3.50;99.90;;;;;;6039084;23;20019;-96
2021/01/02 07:31:36;;;;;;;4.45;3.13;;;3.50;99.90;;;;;;6039606;23;20019;-96
2021/01/02 07:34:19;;;;;;;5.10;3.35;;;3.50;99.90;;;;;;6039250;23;20417;-96
2021/01/02 07:37:33;;;;;;;4.30;3.03;;;3.50;99.90;;;;;;6040605;23;20019;-96
2021/01/02 07:40:26;;;;;;;5.28;3.28;;;3.50;99.90;;;;;;6019144;23;20027;-96
2021/01/02 07:43:12;;;;;;;4.05;3.08;;;3.50;99.90;;;;;;6043158;23;20083;-96
2021/01/02 07:46:06;;;;;;;5.60;3.08;;;3.50;99.90;;;;;;6043298;23;20078;-96
2021/01/02 07:48:58;;;;;;;;;;;3.50;99.90;;;;;;6054482;23;20055;-96
2021/01/02 07:51:43;;;;;;;4.03;3.08;;;3.50;99.90;;;;;;6100251;23;20349;-96
2021/01/02 07:54:38;;;;;;;3.97;3.30;;;3.50;99.90;;;;;;6117326;23;20024;-96
2021/01/02 07:57:11;;;;;;;4.00;3.10;;;3.40;99.90;;;;;;6158053;23;20017;-96
2021/01/02 07:59:40;;;;;;;5.03;3.10;;;3.40;99.90;;;;;;6158811;23;20037;-96
2021/01/02 08:02:28;;;;;;;3.33;2.92;;;3.40;99.90;;;;;;6168986;23;20013;-96
2021/01/02 08:05:26;;;;;;;4.00;2.70;;;3.40;99.90;;;;;;6153272;23;20032;-95
2021/01/02 08:07:56;;;;;;;2.65;2.35;;;3.40;99.90;;;;;;6162020;23;20364;-95
2021/01/02 08:10:27;;;;;;;3.95;2.60;;;3.50;99.90;;;;;;6161604;23;20020;-95
2021/01/02 08:13:00;;;;;;;4.72;2.70;;;3.50;99.90;;;;;;6154121;23;20028;-96
2021/01/02 08:15:34;;;;;;;6.05;2.70;;;3.50;99.90;;;;;;6152997;23;20310;-96
2021/01/02 08:18:08;;;;;;;3.97;2.50;;;3.60;99.90;;;;;;6154243;23;20028;-96
2021/01/02 08:20:39;;;;;;;4.75;3.40;;;3.60;99.90;;;;;;6152745;23;20018;-96
2021/01/02 08:23:14;;;;;;;4.30;3.35;;;3.60;99.90;;;;;;6153149;23;20025;-94
2021/01/02 08:25:42;;;;;;;3.63;2.85;;;3.60;99.90;;;;;;6154269;23;20018;-96
2021/01/02 08:28:10;;;;;;;4.88;3.20;;;3.60;99.90;;;;;;6153402;23;20027;-94
2021/01/02 08:30:37;;;;;;;4.25;3.45;;;3.60;99.90;;;;;;6151806;23;20021;-94
2021/01/02 08:33:07;;;;;;;5.80;4.28;;;3.70;99.90;;;;;;6153178;23;20490;-94
2021/01/02 08:35:42;;;;;;;5.10;3.60;;;3.70;99.90;;;;;;6153649;23;20049;-96
2021/01/02 08:38:32;;;;;;;5.40;3.53;;;3.70;99.90;;;;;;6155253;23;20021;-96
2021/01/02 08:41:40;;;;;;;5.15;3.53;;;3.70;99.90;;;;;;6135758;23;20022;-96
2021/01/02 08:44:37;;;;;;;5.80;3.58;;;3.80;99.90;;;;;;6155690;23;20026;-96
2021/01/02 08:47:30;;;;;;;4.32;3.17;;;3.80;99.90;;;;;;6155889;23;20021;-96
2021/01/02 08:50:57;;;;;;;4.22;3.00;;;3.90;99.90;;;;;;6163389;23;20025;-96
2021/01/02 08:53:54;;;;;;;4.95;2.65;;;4.00;99.90;;;;;;6167307;23;20033;-96
2021/01/02 08:59:28;;;;;;;3.80;2.90;;;4.10;99.90;;;;;;6186666;22;20022;-94
2021/01/02 09:01:56;;;;;;;3.28;2.78;;;4.20;99.90;;;;;;6167783;23;20064;-92
2021/01/02 09:04:28;;;;;;;6.72;2.88;;;4.20;99.90;;;;;;6165164;23;20013;-88
2021/01/02 09:07:02;;;;;;;4.63;2.88;;;4.30;99.90;;;;;;6163001;23;20021;-87
2021/01/02 09:09:28;;;;;;;3.58;2.50;;;4.30;99.90;;;;;;6162359;23;20021;-88
2021/01/02 09:11:56;;;;;;;4.65;2.55;;;4.40;99.90;;;;;;6162175;23;20033;-87
2021/01/02 09:14:27;;;;;;;3.97;2.40;;;4.40;99.90;;;;;;6188456;23;20021;-90
2021/01/02 09:17:02;;;;;;;3.92;3.00;;;4.40;99.90;;;;;;6162349;23;20037;-90
2021/01/02 09:19:33;;;;;;;3.70;2.95;;;4.40;99.90;;;;;;6163055;23;20020;-91
2021/01/02 09:22:00;;;;;;;3.47;2.70;;;4.40;99.90;;;;;;6162019;23;20037;-90
2021/01/02 09:24:29;;;;;;;3.05;2.30;;;4.40;99.90;;;;;;6162422;23;20021;-89
2021/01/02 09:26:58;;;;;;;7.32;4.20;;;4.40;99.90;;;;;;6161932;23;20091;-90
2021/01/02 09:29:25;;;;;;;;;;;4.50;99.90;;;;;;6160870;23;20016;-90
2021/01/02 09:31:52;;;;;;;4.80;3.30;;;4.50;99.90;;;;;;6162912;23;20535;-90
2021/01/02 09:34:19;;;;;;;5.22;3.42;;;4.50;99.90;;;;;;6162668;23;20381;-91
2021/01/02 09:36:51;;;;;;;4.32;3.40;;;4.60;99.90;;;;;;6162147;23;20017;-91
2021/01/02 09:39:23;;;;;;;5.68;3.08;;;4.70;99.90;;;;;;6162074;23;20354;-91
2021/01/02 09:41:50;;;;;;;3.53;2.80;;;4.70;99.90;;;;;;6161749;23;20029;-90
2021/01/02 09:44:17;;;;;;;4.00;3.40;;;4.80;99.90;;;;;;6161586;23;20460;-89
2021/01/02 09:46:51;;;;;;;4.25;3.80;;;4.80;99.90;;;;;;6162906;23;20080;-89
2021/01/02 09:49:19;;;;;;;6.75;3.85;;;4.90;99.90;;;;;;6161732;23;20017;-90
2021/01/02 09:51:48;;;;;;;4.82;3.67;;;5.00;99.90;;;;;;6187003;23;20362;-90
2021/01/02 09:54:16;;;;;;;4.35;3.35;;;5.10;99.90;;;;;;6162198;23;20024;-90
2021/01/02 09:56:45;;;;;;;4.28;3.47;;;5.10;99.90;;;;;;6161422;23;20047;-90
2021/01/02 09:59:14;;;;;;;3.83;3.40;;;5.20;99.90;;;;;;6179232;23;20048;-90
2021/01/02 10:01:41;;;;;;;4.05;2.88;;;5.30;99.90;;;;;;6186448;23;20088;-89
2021/01/02 10:04:11;;;;;;;3.47;2.95;;;5.30;99.90;;;;;;6187221;23;20087;-93
2021/01/02 10:06:55;;;;;;;4.32;2.60;;;5.50;99.90;;;;;;6193406;22;20012;-89
2021/01/02 10:09:23;;;;;;;3.45;2.20;;;5.60;99.90;;;;;;6165118;23;20487;-91
2021/01/02 10:11:50;;;;;;;4.57;2.70;;;5.70;99.90;;;;;;6161288;23;20017;-91
2021/01/02 10:14:17;;;;;;;4.32;2.67;;;5.80;99.90;;;;;;6161501;23;20448;-91
2021/01/02 10:16:44;;;;;;;4.22;2.22;;;5.80;99.90;;;;;;6161904;23;20017;-91
2021/01/02 10:19:12;;;;;;;3.50;2.45;;;5.90;99.90;;;;;;6162712;23;20032;-92
2021/01/02 10:21:40;;;;;;;4.15;2.50;;;5.90;99.90;;;;;;6163176;23;20017;-92
2021/01/02 10:24:09;;;;;;;5.70;2.70;;;5.90;99.90;;;;;;6164281;23;20028;-95
2021/01/02 10:26:36;;;;;;;4.80;2.53;;;6.00;99.90;;;;;;6175136;23;20028;-91
2021/01/02 10:29:04;;;;;;;4.03;2.40;;;6.00;99.90;;;;;;6185975;23;20013;-91
2021/01/02 10:31:32;;;;;;;6.00;2.40;;;6.10;99.90;;;;;;6186700;23;20065;-92
2021/01/02 10:34:01;;;;;;;4.45;2.40;;;6.10;99.90;;;;;;6185443;23;20318;-90
2021/01/02 10:36:29;;;;;;;5.30;2.53;;;6.20;99.90;;;;;;6184949;23;20025;-91
2021/01/02 10:38:57;;;;;;;5.25;2.53;;;6.20;99.90;;;;;;6186045;23;20048;-91
2021/01/02 10:41:24;;;;;;;5.40;2.60;;;6.20;99.90;;;;;;6186003;23;20033;-91
2021/01/02 10:43:52;;;;;;;3.78;2.50;;;6.30;99.90;;;;;;6184847;23;20021;-91
2021/01/02 10:46:19;;;;;;;3.95;2.50;;;6.30;99.90;;;;;;6186388;23;20020;-91
2021/01/02 10:48:47;;;;;;;2.17;1.97;;;6.40;99.90;;;;;;6185570;23;20444;-91
2021/01/02 10:51:16;;;;;;;3.30;2.05;;;6.40;99.90;;;;;;6185209;23;20013;-91
2021/01/02 10:53:43;;;;;;;;;;;6.50;99.90;;;;;;6186493;23;20092;-92
2021/01/02 10:56:17;;;;;;;3.92;1.90;;;6.60;99.90;;;;;;6185016;23;19916;-92
2021/01/02 10:58:46;;;;;;;7.40;2.38;;;6.80;99.90;;;;;;6185750;23;20047;-91
2021/01/02 11:01:14;;;;;;;2.95;1.60;;;6.80;99.90;;;;;;6185557;23;20021;-93
2021/01/02 11:03:42;;;;;;;2.50;1.60;;;6.90;99.90;;;;;;6186598;23;20084;-96
2021/01/02 11:06:14;;;;;;;2.67;1.30;;;6.90;99.90;;;;;;6186306;23;20076;-92
2021/01/02 11:08:43;;;;;;;4.72;1.50;;;6.90;99.90;;;;;;6185088;23;20087;-95
2021/01/02 11:11:21;;;;;;;3.03;1.55;;;6.90;99.90;;;;;;6185741;23;20017;-92
2021/01/02 11:13:48;;;;;;;3.72;1.73;;;6.90;99.90;;;;;;6185384;23;20017;-92
2021/01/02 11:16:15;;;;;;;3.10;1.20;;;6.90;99.90;;;;;;6185861;23;20025;-92
2021/01/02 11:18:42;;;;;;;3.95;1.48;;;6.90;99.90;;;;;;6186395;23;20033;-92
2021/01/02 11:21:10;;;;;;;1.52;1.00;;;6.90;99.90;;;;;;6185037;23;20056;-91
2021/01/02 11:23:37;;;;;;;4.57;1.60;;;6.80;99.90;;;;;;6185849;23;20096;-91
2021/01/02 11:26:10;;;;;;;3.40;1.33;;;6.90;99.90;;;;;;6185562;23;20445;-91
2021/01/02 11:28:37;;;;;;;4.45;1.85;;;7.00;99.90;;;;;;6185579;23;20346;-91
2021/01/02 11:31:04;;;;;;;4.72;1.50;;;7.00;99.90;;;;;;6184871;23;20100;-91
2021/01/02 11:33:32;;;;;;;3.30;1.45;;;7.00;99.90;;;;;;6186139;23;20021;-91
2021/01/02 11:35:59;;;;;;;4.75;1.13;;;7.10;99.90;;;;;;6186042;23;20504;-90
2021/01/02 11:38:26;;;;;;;2.40;1.10;;;7.10;99.90;;;;;;6185719;23;20048;-88
2021/01/02 11:40:53;;;;;;;5.35;1.23;;;7.10;99.90;;;;;;6184499;23;20013;-86
2021/01/02 11:43:20;;;;;;;3.65;1.50;;;7.20;99.90;;;;;;6183980;23;20093;-87
2021/01/02 11:45:48;;;;;;;3.15;1.30;;;7.20;99.90;;;;;;6188158;23;20317;-88
2021/01/02 11:48:16;;;;;;;2.47;1.17;;;7.30;99.90;;;;;;6184423;23;20373;-88
2021/01/02 11:50:43;;;;;;;2.65;1.45;;;7.30;99.90;;;;;;6183266;23;20028;-87
2021/01/02 11:53:10;;;;;;;3.22;1.20;;;7.30;99.90;;;;;;6183817;23;20017;-88
2021/01/02 11:55:39;;;;;;;4.80;1.20;;;7.30;99.90;;;;;;6184615;23;20333;-88
2021/01/02 11:58:06;;;;;;;2.83;1.05;;;7.30;99.90;;;;;;6183794;23;20317;-87
2021/01/02 12:00:34;;;;;;;4.13;1.05;;;7.30;99.90;;;;;;6184149;23;20071;-87
2021/01/02 12:03:03;;;;;;;3.65;1.70;;;7.20;99.90;;;;;;6184054;23;20088;-88
2021/01/02 12:05:30;;;;;;;2.67;1.20;;;7.20;99.90;;;;;;6184091;23;20020;-87
2021/01/02 12:07:59;;;;;;;4.65;1.35;;;7.30;99.90;;;;;;6183910;23;20021;-87
2021/01/02 12:10:26;;;;;;;2.90;1.17;;;7.30;99.90;;;;;;6183962;23;20028;-88
2021/01/02 12:12:55;;;;;;;3.65;1.17;;;7.30;99.90;;;;;;6185471;23;20437;-93
2021/01/02 12:15:32;;;;;;;;;;;7.30;99.90;;;;;;6187177;23;20028;-96
2021/01/02 12:18:00;;;;;;;2.80;1.23;;;7.30;99.90;;;;;;6183786;23;19948;-87
2021/01/02 12:20:28;;;;;;;2.83;1.00;;;7.30;99.90;;;;;;6184186;23;20333;-87
2021/01/02 12:22:55;;;;;;;4.60;1.38;;;7.30;99.90;;;;;;6184185;23;20495;-88
2021/01/02 12:25:24;;;;;;;3.35;1.38;;;7.30;99.90;;;;;;6183663;23;20100;-88
2021/01/02 12:27:58;;;;;;;2.20;1.10;;;7.30;99.90;;;;;;6160432;23;20023;-88
2021/01/02 12:30:29;;;;;;;2.92;1.15;;;7.40;99.90;;;;;;6158235;23;20052;-88
2021/01/02 12:32:58;;;;;;;5.90;1.33;;;7.40;99.90;;;;;;6159062;23;20017;-88
2021/01/02 12:35:27;;;;;;;5.63;1.55;;;7.40;99.90;;;;;;6159549;23;20024;-89
2021/01/02 12:37:55;;;;;;;5.07;1.45;;;7.40;99.90;;;;;;6159568;23;20525;-88
2021/01/02 12:40:23;;;;;;;3.72;1.48;;;7.40;99.90;;;;;;6158361;23;20019;-88
2021/01/02 12:42:51;;;;;;;2.67;1.20;;;7.30;99.90;;;;;;6184355;23;20028;-88
2021/01/02 12:45:19;;;;;;;3.83;1.30;;;7.30;99.90;;;;;;6159108;23;20021;-88
2021/01/02 12:47:47;;;;;;;5.38;1.23;;;7.20;99.90;;;;;;6159617;23;20027;-89
2021/01/02 12:50:16;;;;;;;2.67;1.20;;;7.20;99.90;;;;;;6159175;23;20446;-89
2021/01/02 12:52:44;;;;;;;;;;;7.20;99.90;;;;;;6159328;23;20017;-88
2021/01/02 12:55:12;;;;;;;9.15;2.03;;;7.20;99.90;;;;;;6159186;23;19924;-88
2021/01/02 12:57:41;;;;;;;2.35;1.00;;;7.20;99.90;;;;;;6183519;23;20021;-89
2021/01/02 13:00:10;;;;;;;3.33;1.20;;;7.30;99.90;;;;;;6159004;23;20025;-88
2021/01/02 13:02:38;;;;;;;3.53;1.35;;;7.30;99.90;;;;;;6183590;23;20017;-88
2021/01/02 13:05:10;;;;;;;2.75;0.82;;;7.40;99.90;;;;;;6160595;23;20025;-89
2021/01/02 13:07:39;;;;;;;2.72;1.02;;;7.40;99.90;;;;;;6184434;23;20013;-88
2021/01/02 13:10:22;;;;;;;1.50;0.90;;;7.50;99.90;;;;;;6162204;23;20021;-88
2021/01/02 13:12:52;;;;;;;4.22;1.17;;;7.50;99.90;;;;;;6159308;23;20013;-88
2021/01/02 13:15:21;;;;;;;4.20;1.25;;;7.50;99.90;;;;;;6158945;23;20028;-88
2021/01/02 13:17:49;;;;;;;3.92;1.42;;;7.50;99.90;;;;;;6159548;23;20021;-88
2021/01/02 13:20:17;;;;;;;2.72;1.35;;;7.50;99.90;;;;;;6159461;23;20024;-88
2021/01/02 13:22:45;;;;;;;4.15;2.35;;;7.60;99.90;;;;;;6159390;23;20086;-88
2021/01/02 13:25:17;;;;;;;3.38;0.95;;;7.60;99.90;;;;;;6158721;23;20393;-88
2021/01/02 13:27:44;;;;;;;4.80;1.75;;;7.70;99.90;;;;;;6208592;23;20031;-89
2021/01/02 13:30:12;;;;;;;3.47;1.27;;;7.70;99.90;;;;;;6182567;23;20055;-88
2021/01/02 13:32:39;;;;;;;5.13;1.20;;;7.70;99.90;;;;;;6183838;23;20017;-87
2021/01/02 13:35:09;;;;;;;3.45;1.40;;;7.70;99.90;;;;;;6184113;23;20023;-88
2021/01/02 13:37:37;;;;;;;3.72;1.20;;;7.70;99.90;;;;;;6183434;23;20045;-88
2021/01/02 13:40:06;;;;;;;4.82;1.42;;;7.60;99.90;;;;;;6184111;23;20041;-88
2021/01/02 13:42:36;;;;;;;2.03;0.90;;;7.60;99.90;;;;;;6186335;23;20071;-87
2021/01/02 13:45:04;;;;;;;;;;;7.50;99.90;;;;;;6186530;23;20445;-88
2021/01/02 13:47:34;;;;;;;2.00;0.90;;;7.50;99.90;;;;;;6184216;23;19916;-88
2021/01/02 13:50:05;;;;;;;5.78;1.10;;;7.50;99.90;;;;;;6183513;23;20021;-89
2021/01/02 13:52:34;;;;;;;3.15;1.00;;;7.40;99.90;;;;;;6183268;23;20013;-88
2021/01/02 13:55:02;;;;;;;;;;;7.40;99.90;;;;;;6181951;23;20025;-89